createdAt,value
2017-11-23T00:02:14.800Z,35.63
2017-11-23T00:04:45.315Z,38.73
2017-11-23T00:07:15.468Z,34.60
2017-11-23T00:09:43.946Z,38.30
2017-11-23T00:12:12.106Z,36.53
2017-11-23T00:14:40.543Z,36.90
2017-11-23T00:17:11.740Z,34.00
2017-11-23T00:19:42.243Z,35.50
2017-11-23T00:22:12.606Z,34.00
2017-11-23T00:24:42.397Z,40.77
2017-11-23T00:27:13.208Z,40.00
2017-11-23T00:29:42.980Z,40.37
2017-11-23T00:32:12.277Z,38.57
2017-11-23T00:34:42.858Z,41.50
2017-11-23T00:37:11.625Z,40.47
2017-11-23T00:39:40.521Z,40.13
2017-11-23T00:42:10.448Z,42.13
2017-11-23T00:44:40.253Z,45.13
2017-11-23T00:47:08.758Z,42.90
2017-11-23T00:49:37.999Z,42.90
2017-11-23T00:52:07.529Z,51.10
2017-11-23T00:54:36.763Z,47.27
2017-11-23T00:57:06.267Z,47.90
2017-11-23T00:59:35.149Z,45.93
2017-11-23T01:02:05.054Z,41.17
2017-11-23T01:04:34.698Z,43.30
2017-11-23T01:07:05.307Z,40.07
2017-11-23T01:09:34.834Z,38.47
2017-11-23T01:12:04.206Z,38.57
2017-11-23T01:14:34.740Z,38.83
2017-11-23T01:17:06.065Z,40.87
2017-11-23T01:19:36.234Z,40.57
2017-11-23T01:25:05.144Z,37.77
2017-11-23T01:27:33.633Z,40.33
2017-11-23T01:30:01.765Z,36.40
2017-11-23T01:32:31.761Z,39.77
2017-11-23T01:35:00.702Z,41.97
2017-11-23T01:37:28.824Z,42.10
2017-11-23T01:39:57.777Z,42.30
2017-11-23T01:42:25.972Z,49.87
2017-11-23T01:44:54.754Z,49.77
2017-11-23T01:47:23.307Z,49.80
2017-11-23T01:49:51.554Z,49.37
2017-11-23T01:52:20.659Z,49.37
2017-11-23T01:54:48.684Z,48.60
2017-11-23T01:57:17.553Z,50.27
2017-11-23T01:59:45.778Z,47.57
2017-11-23T02:02:15.490Z,50.33
2017-11-23T02:04:44.312Z,53.50
2017-11-23T02:07:12.338Z,55.67
2017-11-23T02:09:41.671Z,52.73
2017-11-23T02:12:09.786Z,51.67
2017-11-23T02:14:37.927Z,51.80
2017-11-23T02:17:06.030Z,56.40
2017-11-23T02:19:34.231Z,64.10
2017-11-23T02:22:02.368Z,67.70
2017-11-23T02:24:30.486Z,71.03
2017-11-23T02:26:59.457Z,67.43
2017-11-23T02:29:28.505Z,73.30
2017-11-23T02:31:56.696Z,77.77
2017-11-23T02:34:24.861Z,73.97
2017-11-23T02:36:52.999Z,73.87
2017-11-23T02:39:21.180Z,74.27
2017-11-23T02:41:50.741Z,73.60
2017-11-23T02:44:19.042Z,75.00
2017-11-23T02:46:47.672Z,70.73
2017-11-23T02:49:17.327Z,66.40
2017-11-23T02:51:45.984Z,68.60
2017-11-23T02:54:16.151Z,69.80
2017-11-23T02:56:45.810Z,70.50
2017-11-23T02:59:15.430Z,69.90
2017-11-23T03:01:44.046Z,71.17
2017-11-23T03:04:13.749Z,64.10
2017-11-23T03:06:42.557Z,54.77
2017-11-23T03:09:12.785Z,69.43
2017-11-23T03:11:41.977Z,69.27
2017-11-23T03:14:11.546Z,72.87
2017-11-23T03:16:40.365Z,71.57
2017-11-23T03:19:10.115Z,76.67
2017-11-23T03:21:38.822Z,76.07
2017-11-23T03:24:08.133Z,78.07
2017-11-23T03:26:37.358Z,72.07
2017-11-23T03:29:05.837Z,75.30
2017-11-23T03:31:34.133Z,78.07
2017-11-23T03:34:03.046Z,81.33
2017-11-23T03:36:31.736Z,84.33
2017-11-23T03:39:00.134Z,76.47
2017-11-23T03:41:29.165Z,82.83
2017-11-23T03:43:57.626Z,82.07
2017-11-23T03:46:26.182Z,81.37
2017-11-23T03:48:55.065Z,79.17
2017-11-23T03:51:24.150Z,84.30
2017-11-23T03:53:53.861Z,80.90
2017-11-23T03:56:22.713Z,77.03
2017-11-23T03:58:50.883Z,81.33
2017-11-23T04:01:18.944Z,81.03
2017-11-23T04:03:47.389Z,80.03
2017-11-23T04:06:16.318Z,74.10
2017-11-23T04:08:44.632Z,74.90
2017-11-23T04:11:13.654Z,76.97
2017-11-23T04:13:41.793Z,79.47
2017-11-23T04:16:10.812Z,80.00
2017-11-23T04:18:39.273Z,85.37
2017-11-23T04:21:08.581Z,73.63
2017-11-23T04:23:37.372Z,77.77
2017-11-23T04:26:06.354Z,80.97
2017-11-23T04:28:35.470Z,72.60
2017-11-23T04:31:03.906Z,80.90
2017-11-23T04:33:31.970Z,76.37
2017-11-23T04:36:00.161Z,70.70
2017-11-23T04:38:29.007Z,71.50
2017-11-23T04:40:57.778Z,72.97
2017-11-23T04:43:26.855Z,76.33
2017-11-23T04:45:56.312Z,78.43
2017-11-23T04:48:24.376Z,72.17
2017-11-23T04:50:52.589Z,77.37
2017-11-23T04:53:21.660Z,75.97
2017-11-23T04:55:49.955Z,78.13
2017-11-23T04:58:18.067Z,75.10
2017-11-23T05:00:46.554Z,78.53
2017-11-23T05:03:15.829Z,73.17
2017-11-23T05:05:45.458Z,72.93
2017-11-23T05:08:15.239Z,73.37
2017-11-23T05:10:45.259Z,78.97
2017-11-23T05:13:15.828Z,81.93
2017-11-23T05:15:45.608Z,77.40
2017-11-23T05:18:15.752Z,77.40
2017-11-23T05:20:44.592Z,78.13
2017-11-23T05:23:13.563Z,85.17
2017-11-23T05:25:42.822Z,76.20
2017-11-23T05:28:11.377Z,76.50
2017-11-23T05:30:40.339Z,78.20
2017-11-23T05:33:08.520Z,75.43
2017-11-23T05:35:36.574Z,75.90
2017-11-23T05:38:04.643Z,83.20
2017-11-23T05:40:32.910Z,75.27
2017-11-23T05:43:00.922Z,72.23
2017-11-23T05:45:28.963Z,71.03
2017-11-23T05:47:56.957Z,72.60
2017-11-23T05:50:24.955Z,75.33
2017-11-23T05:52:53.740Z,73.53
2017-11-23T05:55:22.528Z,92.13
2017-11-23T05:57:51.295Z,286.73
2017-11-23T06:00:19.309Z,152.90
2017-11-23T06:02:47.335Z,138.00
2017-11-23T06:05:15.353Z,138.00
2017-11-23T06:07:43.350Z,106.93
2017-11-23T06:10:11.371Z,69.20
2017-11-23T06:12:40.176Z,68.00
2017-11-23T06:15:08.176Z,64.33
2017-11-23T06:17:36.234Z,70.03
2017-11-23T06:20:04.267Z,68.43
2017-11-23T06:22:33.052Z,65.07
2017-11-23T06:25:01.860Z,62.90
2017-11-23T06:27:30.658Z,71.83
2017-11-23T06:29:58.702Z,67.30
2017-11-23T06:32:27.475Z,66.73
2017-11-23T06:34:55.473Z,83.50
2017-11-23T06:37:24.263Z,65.93
2017-11-23T06:39:53.030Z,78.80
2017-11-23T06:42:21.038Z,109.63
2017-11-23T06:44:49.050Z,87.23
2017-11-23T06:47:17.071Z,105.70
2017-11-23T06:49:45.106Z,97.07
2017-11-23T06:52:13.106Z,91.50
2017-11-23T06:54:41.887Z,100.63
2017-11-23T06:57:10.687Z,111.20
2017-11-23T06:59:38.702Z,183.33
2017-11-23T07:02:06.756Z,209.00
2017-11-23T07:04:34.798Z,132.87
2017-11-23T07:07:02.838Z,125.63
2017-11-23T07:09:30.866Z,105.77
2017-11-23T07:11:58.873Z,122.80
2017-11-23T07:14:26.870Z,126.23
2017-11-23T07:16:55.706Z,118.23
2017-11-23T07:19:23.720Z,124.63
2017-11-23T07:21:51.724Z,119.80
2017-11-23T07:24:19.767Z,127.17
2017-11-23T07:26:48.551Z,115.37
2017-11-23T07:29:17.322Z,135.67
2017-11-23T07:31:45.350Z,132.13
2017-11-23T07:34:13.356Z,131.43
2017-11-23T07:36:41.371Z,126.90
2017-11-23T07:39:09.383Z,121.30
2017-11-23T07:41:37.414Z,115.67
2017-11-23T07:44:05.461Z,133.23
2017-11-23T07:46:33.491Z,130.33
2017-11-23T07:49:01.521Z,128.47
2017-11-23T07:51:29.591Z,115.70
2017-11-23T07:53:58.370Z,118.07
2017-11-23T07:56:27.148Z,119.37
2017-11-23T07:58:55.155Z,114.20
2017-11-23T08:01:23.198Z,123.60
2017-11-23T08:03:51.999Z,156.70
2017-11-23T08:06:20.839Z,126.07
2017-11-23T08:08:48.869Z,116.27
2017-11-23T08:11:16.878Z,110.70
2017-11-23T08:13:44.905Z,118.17
2017-11-23T08:16:13.013Z,115.07
2017-11-23T08:18:41.046Z,116.03
2017-11-23T08:21:09.856Z,117.33
2017-11-23T08:23:38.019Z,117.47
2017-11-23T08:26:06.034Z,112.37
2017-11-23T08:28:34.046Z,116.87
2017-11-23T08:31:02.846Z,131.13
2017-11-23T08:33:30.851Z,123.03
2017-11-23T08:35:58.895Z,141.37
2017-11-23T08:38:26.946Z,124.00
2017-11-23T08:40:55.749Z,122.27
2017-11-23T08:43:23.802Z,113.43
2017-11-23T08:45:52.580Z,118.70
2017-11-23T08:48:21.385Z,118.00
2017-11-23T08:50:50.142Z,126.00
2017-11-23T08:53:18.458Z,118.93
2017-11-23T08:55:50.086Z,125.17
2017-11-23T08:58:18.128Z,130.53
2017-11-23T09:00:46.161Z,123.30
2017-11-23T09:03:14.190Z,118.40
2017-11-23T09:05:45.786Z,126.23
2017-11-23T09:08:13.783Z,118.90
2017-11-23T09:10:41.816Z,115.13
2017-11-23T09:13:09.834Z,114.73
2017-11-23T09:15:38.294Z,116.47
2017-11-23T09:18:06.350Z,194.47
2017-11-23T09:20:34.378Z,133.30
2017-11-23T09:23:02.398Z,123.63
2017-11-23T09:25:30.540Z,118.80
2017-11-23T09:27:59.317Z,122.83
2017-11-23T09:30:27.441Z,130.03
2017-11-23T09:32:55.481Z,130.43
2017-11-23T09:35:23.503Z,168.63
2017-11-23T09:37:52.954Z,154.47
2017-11-23T09:40:21.775Z,114.13
2017-11-23T09:42:49.858Z,115.63
2017-11-23T09:45:17.906Z,148.13
2017-11-23T09:47:45.979Z,182.77
2017-11-23T09:50:14.100Z,131.77
2017-11-23T09:52:42.166Z,133.20
2017-11-23T09:55:10.236Z,125.20
2017-11-23T09:57:38.250Z,120.40
2017-11-23T10:00:07.418Z,128.73
2017-11-23T10:02:35.470Z,145.63
2017-11-23T10:05:03.690Z,154.77
2017-11-23T10:07:32.551Z,116.37
2017-11-23T10:10:00.606Z,148.17
2017-11-23T10:12:28.650Z,139.80
2017-11-23T10:14:56.874Z,120.37
2017-11-23T10:17:24.909Z,125.10
2017-11-23T10:19:53.017Z,138.40
2017-11-23T10:22:21.020Z,127.17
2017-11-23T10:24:49.027Z,148.33
2017-11-23T10:27:17.034Z,151.70
2017-11-23T10:29:45.837Z,112.37
2017-11-23T10:32:14.796Z,121.63
2017-11-23T10:34:42.802Z,112.50
2017-11-23T10:37:11.625Z,112.20
2017-11-23T10:39:39.654Z,124.97
2017-11-23T10:42:08.633Z,117.57
2017-11-23T10:44:36.668Z,269.17
2017-11-23T10:47:04.705Z,127.47
2017-11-23T10:49:32.731Z,116.33
2017-11-23T10:52:00.781Z,114.83
2017-11-23T10:54:28.858Z,124.20
2017-11-23T10:56:56.874Z,123.13
2017-11-23T10:59:25.707Z,111.37
2017-11-23T11:01:57.517Z,108.50
2017-11-23T11:04:26.306Z,112.20
2017-11-23T11:06:55.165Z,111.00
2017-11-23T11:09:23.230Z,109.37
2017-11-23T11:11:51.255Z,111.03
2017-11-23T11:14:20.091Z,106.97
2017-11-23T11:16:48.122Z,113.23
2017-11-23T11:19:16.167Z,106.00
2017-11-23T11:21:44.180Z,107.00
2017-11-23T11:24:12.175Z,108.53
2017-11-23T11:26:40.187Z,107.33
2017-11-23T11:29:09.001Z,115.30
2017-11-23T11:31:37.033Z,111.27
2017-11-23T11:34:06.898Z,113.93
2017-11-23T11:36:34.923Z,112.33
2017-11-23T11:39:04.258Z,109.07
2017-11-23T11:41:32.263Z,115.80
2017-11-23T11:44:00.293Z,105.83
2017-11-23T11:46:28.340Z,105.37
2017-11-23T11:48:57.187Z,111.87
2017-11-23T11:51:25.213Z,110.60
2017-11-23T11:53:54.059Z,109.50
2017-11-23T11:56:22.082Z,116.37
2017-11-23T11:58:50.110Z,115.70
2017-11-23T12:01:18.206Z,117.63
2017-11-23T12:03:47.084Z,112.13
2017-11-23T12:06:16.078Z,109.90
2017-11-23T12:08:44.113Z,109.40
2017-11-23T12:11:12.143Z,111.77
2017-11-23T12:13:41.071Z,109.67
2017-11-23T12:16:20.839Z,110.67
2017-11-23T12:19:02.599Z,108.80
2017-11-23T13:43:39.653Z,165.63
2017-11-23T13:46:07.685Z,115.17
2017-11-23T13:48:36.471Z,110.50
2017-11-23T13:51:05.301Z,112.90
2017-11-23T13:53:33.334Z,113.43
2017-11-23T13:56:02.163Z,119.23
2017-11-23T13:58:30.173Z,111.90
2017-11-23T14:00:58.178Z,114.30
2017-11-23T14:03:26.222Z,113.97
2017-11-23T14:05:55.001Z,133.93
2017-11-23T14:08:23.047Z,123.67
2017-11-23T14:10:51.085Z,126.43
2017-11-23T14:13:19.181Z,139.80
2017-11-23T14:15:47.638Z,125.93
2017-11-23T14:18:15.639Z,147.53
2017-11-23T14:20:43.671Z,134.50
2017-11-23T14:23:11.698Z,122.00
2017-11-23T14:25:39.795Z,109.93
2017-11-23T14:28:08.615Z,111.80
2017-11-23T14:30:36.650Z,262.43
2017-11-23T14:33:04.648Z,173.27
2017-11-23T14:35:32.610Z,181.50
2017-11-23T14:38:00.603Z,121.83
2017-11-23T14:40:28.623Z,110.83
2017-11-23T14:42:56.671Z,161.40
2017-11-23T14:45:24.738Z,213.00
2017-11-23T14:47:52.731Z,167.90
2017-11-23T14:50:20.736Z,181.57
2017-11-23T14:52:48.820Z,118.10
2017-11-23T14:55:16.816Z,133.40
2017-11-23T14:57:44.832Z,121.37
2017-11-23T15:00:12.926Z,117.13
2017-11-23T15:02:40.964Z,132.23
2017-11-23T15:05:08.970Z,125.03
2017-11-23T15:07:36.989Z,120.40
2017-11-23T15:10:05.099Z,109.17
2017-11-23T15:12:33.869Z,116.37
2017-11-23T15:15:04.101Z,114.10
2017-11-23T15:17:32.891Z,114.50
2017-11-23T15:20:01.694Z,109.10
2017-11-23T15:22:29.724Z,111.40
2017-11-23T15:24:57.822Z,109.87
2017-11-23T15:27:26.605Z,109.97
2017-11-23T15:29:55.407Z,107.67
2017-11-23T15:32:24.275Z,106.77
2017-11-23T15:34:52.291Z,110.87
2017-11-23T15:37:20.330Z,107.50
2017-11-23T15:39:49.119Z,112.50
2017-11-23T15:42:17.931Z,107.37
2017-11-23T15:44:45.965Z,107.23
2017-11-23T15:47:13.997Z,107.30
2017-11-23T15:49:42.036Z,109.63
2017-11-23T15:52:10.068Z,105.17
2017-11-23T15:54:38.094Z,114.70
2017-11-23T15:57:06.121Z,107.30
2017-11-23T15:59:34.141Z,110.57
2017-11-23T16:02:02.192Z,106.93
2017-11-23T16:04:30.247Z,112.40
2017-11-23T16:07:00.326Z,114.30
2017-11-23T16:09:29.747Z,116.10
2017-11-23T16:12:01.234Z,114.73
2017-11-23T16:14:29.263Z,111.93
2017-11-23T16:16:57.279Z,116.57
2017-11-23T16:19:25.338Z,113.97
2017-11-23T16:21:54.109Z,117.23
2017-11-23T16:24:22.142Z,117.53
2017-11-23T16:26:50.224Z,116.67
2017-11-23T16:29:18.322Z,114.53
2017-11-23T16:31:46.422Z,117.00
2017-11-23T16:34:14.511Z,109.63
2017-11-23T16:36:47.211Z,98.10
2017-11-23T16:39:15.363Z,100.67
2017-11-23T16:41:55.217Z,103.87
2017-11-23T16:44:28.862Z,99.93
2017-11-23T16:50:18.395Z,103.83
2017-11-23T16:53:04.287Z,103.50
2017-11-23T16:55:37.900Z,105.83
2017-11-23T16:58:05.983Z,103.47
2017-11-23T17:00:39.613Z,107.70
2017-11-23T17:03:13.249Z,98.20
2017-11-23T17:08:50.464Z,102.30
2017-11-23T17:11:34.989Z,113.27
2017-11-23T17:14:08.638Z,110.00
2017-11-23T17:16:42.272Z,101.50
2017-11-23T17:19:16.846Z,109.07
2017-11-23T17:21:45.787Z,109.30
2017-11-23T17:24:13.843Z,108.77
2017-11-23T17:26:41.899Z,109.63
2017-11-23T17:29:09.941Z,103.00
2017-11-23T17:31:38.765Z,101.47
2017-11-23T17:34:06.771Z,104.53
2017-11-23T17:45:46.720Z,99.13
2017-11-23T17:48:19.580Z,98.63
2017-11-23T17:50:48.663Z,95.10
2017-11-23T17:53:19.159Z,99.00
2017-11-23T18:17:12.174Z,92.40
2017-11-23T18:19:40.544Z,93.07
2017-11-23T18:22:09.253Z,92.50
2017-11-23T18:24:37.984Z,126.57
2017-11-23T18:27:06.345Z,113.43
2017-11-23T18:29:35.208Z,103.53
2017-11-23T18:32:03.243Z,95.57
2017-11-23T18:34:31.257Z,87.17
2017-11-23T18:37:00.031Z,89.30
2017-11-23T18:39:28.086Z,89.60
2017-11-23T18:41:56.090Z,86.07
2017-11-23T18:44:24.904Z,83.70
2017-11-23T18:46:52.951Z,85.10
2017-11-23T18:49:21.775Z,84.53
2017-11-23T18:51:49.800Z,86.90
2017-11-23T18:54:17.818Z,79.60
2017-11-23T18:56:45.816Z,85.83
2017-11-23T18:59:13.838Z,86.60
2017-11-23T19:01:41.805Z,83.37
2017-11-23T19:04:10.567Z,84.37
2017-11-23T19:06:38.592Z,82.50
2017-11-23T19:09:06.640Z,77.70
2017-11-23T19:11:34.674Z,75.83
2017-11-23T19:14:02.692Z,80.27
2017-11-23T19:16:30.742Z,76.30
2017-11-23T19:18:58.771Z,74.43
2017-11-23T19:21:27.267Z,76.67
2017-11-23T19:23:55.323Z,75.47
2017-11-23T19:26:24.846Z,81.20
2017-11-23T19:28:52.882Z,78.17
2017-11-23T19:31:20.944Z,74.90
2017-11-23T19:33:48.979Z,74.03
2017-11-23T19:36:17.826Z,77.13
2017-11-23T19:38:46.492Z,79.27
2017-11-23T19:41:15.350Z,76.93
2017-11-23T19:43:44.499Z,75.47
2017-11-23T19:46:12.591Z,71.43
2017-11-23T19:48:40.723Z,73.57
2017-11-23T19:51:08.780Z,70.20
2017-11-23T19:53:36.804Z,67.03
2017-11-23T19:56:04.831Z,65.03
2017-11-23T19:58:32.888Z,67.00
2017-11-23T20:01:00.919Z,66.73
2017-11-23T20:03:28.930Z,67.63
2017-11-23T20:05:56.943Z,61.93
2017-11-23T20:08:24.984Z,71.23
2017-11-23T20:10:52.999Z,61.10
2017-11-23T20:13:21.031Z,60.60
2017-11-23T20:15:49.070Z,62.70
2017-11-23T20:18:17.871Z,63.00
2017-11-23T20:20:45.889Z,64.60
2017-11-23T20:23:13.917Z,57.43
2017-11-23T20:25:41.962Z,60.23
2017-11-23T20:28:10.752Z,59.90
2017-11-23T20:30:39.537Z,58.40
2017-11-23T20:33:08.352Z,59.70
2017-11-23T20:35:36.389Z,56.07
2017-11-23T20:38:04.418Z,58.30
2017-11-23T20:40:32.449Z,54.10
2017-11-23T20:43:01.238Z,52.67
2017-11-23T20:45:30.067Z,53.57
2017-11-23T20:47:58.117Z,51.80
2017-11-23T20:50:26.159Z,53.17
2017-11-23T20:52:54.970Z,51.37
2017-11-23T20:55:22.981Z,53.53
2017-11-23T20:57:51.019Z,56.50
2017-11-23T21:00:19.038Z,53.50
2017-11-23T21:02:47.320Z,55.30
2017-11-23T21:05:15.331Z,54.40
2017-11-23T21:07:43.346Z,49.20
2017-11-23T21:10:11.382Z,55.13
2017-11-23T21:12:39.410Z,52.33
2017-11-23T21:15:07.552Z,52.27
2017-11-23T21:17:35.550Z,52.57
2017-11-23T21:20:03.579Z,50.40
2017-11-23T21:22:31.564Z,47.93
2017-11-23T21:24:59.634Z,48.53
2017-11-23T21:27:27.649Z,49.53
2017-11-23T21:29:56.431Z,50.77
2017-11-23T21:32:25.391Z,48.37
2017-11-23T21:34:53.397Z,47.03
2017-11-23T21:37:22.243Z,49.20
2017-11-23T21:39:50.227Z,50.07
2017-11-23T21:42:18.256Z,48.47
2017-11-23T21:44:46.274Z,50.07
2017-11-23T21:47:14.289Z,47.93
2017-11-23T21:49:42.361Z,49.10
2017-11-23T21:52:10.461Z,49.50
2017-11-23T21:54:38.482Z,43.40
2017-11-23T21:57:07.295Z,44.80
2017-11-23T21:59:35.311Z,47.07
2017-11-23T22:02:03.323Z,44.60
2017-11-23T22:04:32.031Z,43.73
2017-11-23T22:07:00.022Z,45.60
2017-11-23T22:09:28.053Z,43.23
2017-11-23T22:11:56.834Z,44.93
2017-11-23T22:14:25.666Z,42.30
2017-11-23T22:16:53.687Z,42.30
2017-11-23T22:19:22.089Z,45.47
2017-11-23T22:21:50.142Z,42.23
2017-11-23T22:24:19.038Z,41.73
2017-11-23T22:26:47.827Z,42.60
2017-11-23T22:29:16.585Z,43.33
2017-11-23T22:31:44.593Z,41.00
2017-11-23T22:34:12.639Z,41.00
2017-11-23T22:36:40.674Z,42.93
2017-11-23T22:39:08.719Z,43.40
2017-11-23T22:41:36.746Z,42.17
2017-11-23T22:44:04.768Z,38.07
2017-11-23T22:46:32.760Z,41.57
2017-11-23T22:49:00.802Z,39.40
2017-11-23T22:51:28.815Z,38.97
2017-11-23T22:53:56.819Z,42.07
2017-11-23T22:56:25.613Z,38.97
2017-11-23T22:58:54.401Z,40.33
2017-11-23T23:01:23.163Z,38.50
2017-11-23T23:03:51.169Z,38.80
2017-11-23T23:06:19.206Z,39.27
2017-11-23T23:08:47.251Z,38.87
2017-11-23T23:11:15.294Z,39.60
2017-11-23T23:13:43.323Z,40.47
2017-11-23T23:16:11.343Z,40.20
2017-11-23T23:18:39.354Z,38.97
2017-11-23T23:21:07.907Z,39.10
2017-11-23T23:23:36.746Z,39.10
2017-11-23T23:26:05.528Z,39.67
2017-11-23T23:28:33.564Z,41.80
2017-11-23T23:31:01.598Z,36.30
2017-11-23T23:33:29.598Z,39.73
2017-11-23T23:35:57.595Z,38.67
2017-11-23T23:38:25.613Z,38.13
2017-11-23T23:40:53.664Z,38.70
2017-11-23T23:43:22.474Z,41.30
2017-11-23T23:45:50.490Z,43.70
2017-11-23T23:48:18.498Z,36.53
2017-11-23T23:50:47.254Z,39.43
2017-11-23T23:53:15.278Z,36.20
2017-11-23T23:55:43.321Z,38.23
2017-11-23T23:58:12.103Z,39.47
